Time;durP1;ratioP1;P1;durP2;ratioP2;P2;SDS_P1;SDS_P2;PMS_P1;PMS_P2;Temp;Humidity;BMP_temperature;BMP_pressure;BME280_temperature;BME280_humidity;BME280_pressure;Samples;Min_cycle;Max_cycle;Signal;HPM_P1;HPM_P2
2022/09/25 00:01:36;;;;;;;14.02;12.93;;;11.60;99.90;;;;;;4999082;28;20031;-61
2022/09/25 00:04:02;;;;;;;15.48;14.00;;;11.60;99.90;;;;;;5000623;28;20072;-62
2022/09/25 00:06:29;;;;;;;15.25;13.57;;;11.60;99.90;;;;;;4997421;28;20026;-61
2022/09/25 00:08:55;;;;;;;15.30;13.85;;;11.60;99.90;;;;;;5000143;28;20029;-61
2022/09/25 00:11:27;;;;;;;15.10;13.68;;;11.60;99.90;;;;;;4998703;28;20037;-60
2022/09/25 00:13:54;;;;;;;15.90;12.63;;;11.60;99.90;;;;;;4997376;28;20030;-61
2022/09/25 00:16:24;;;;;;;15.35;14.05;;;11.50;99.90;;;;;;5002157;28;20455;-61
2022/09/25 00:21:35;;;;;;;14.80;13.60;;;11.50;99.90;;;;;;4996976;28;20100;-61
2022/09/25 00:24:07;;;;;;;15.77;14.35;;;11.40;99.90;;;;;;4997998;28;20161;-61
2022/09/25 00:26:36;;;;;;;15.27;13.77;;;11.40;99.90;;;;;;4998848;28;20068;-61
2022/09/25 00:29:03;;;;;;;15.88;14.27;;;11.40;99.90;;;;;;5002204;28;20022;-61
2022/09/25 00:31:29;;;;;;;16.88;15.30;;;11.40;99.90;;;;;;4993394;28;20569;-62
2022/09/25 00:34:00;;;;;;;16.23;14.98;;;11.30;99.90;;;;;;4998213;28;20029;-60
2022/09/25 00:36:26;;;;;;;16.13;14.52;;;11.30;99.90;;;;;;4997863;28;20109;-62
2022/09/25 00:38:53;;;;;;;17.35;15.80;;;11.30;99.90;;;;;;4998258;28;20417;-61
2022/09/25 00:41:22;;;;;;;16.52;15.10;;;11.30;99.90;;;;;;4997522;28;20474;-61
2022/09/25 00:43:50;;;;;;;16.02;14.63;;;11.20;99.90;;;;;;4994768;28;20506;-62
2022/09/25 00:46:37;;;;;;;15.60;14.02;;;11.20;99.90;;;;;;4997741;28;20486;-61
2022/09/25 00:49:13;;;;;;;15.13;13.77;;;11.20;99.90;;;;;;4997480;28;20018;-61
2022/09/25 00:51:58;;;;;;;16.25;14.85;;;11.10;99.90;;;;;;4995754;28;20019;-62
2022/09/25 00:54:43;;;;;;;16.27;14.57;;;11.10;99.90;;;;;;5000462;28;20137;-62
2022/09/25 00:57:13;;;;;;;15.30;14.00;;;11.00;99.90;;;;;;4971400;28;20387;-61
2022/09/25 01:00:01;;;;;;;15.70;14.35;;;10.90;99.90;;;;;;4996689;28;20027;-61
2022/09/25 01:02:33;;;;;;;15.27;13.88;;;10.90;99.90;;;;;;4993774;28;20037;-60
2022/09/25 01:05:04;;;;;;;15.13;13.60;;;10.90;99.90;;;;;;4999593;28;20033;-61
2022/09/25 01:07:32;;;;;;;14.23;12.73;;;10.80;99.90;;;;;;4998452;28;20502;-61
2022/09/25 01:10:01;;;;;;;14.38;13.18;;;10.70;99.90;;;;;;4995540;28;20044;-62
2022/09/25 01:12:27;;;;;;;16.75;13.85;;;10.60;99.90;;;;;;4997734;28;20431;-61
2022/09/25 01:14:54;;;;;;;16.20;14.65;;;10.60;99.90;;;;;;4995821;28;20096;-61
2022/09/25 01:17:29;;;;;;;15.50;14.02;;;10.60;99.90;;;;;;4997152;28;20034;-58
2022/09/25 01:20:33;;;;;;;16.90;15.50;;;10.50;99.90;;;;;;5001530;28;20173;-59
2022/09/25 01:23:08;;;;;;;17.13;15.65;;;10.50;99.90;;;;;;4980399;28;20026;-58
2022/09/25 01:25:33;;;;;;;17.35;15.85;;;10.50;99.90;;;;;;5000222;28;20249;-58
2022/09/25 01:28:18;;;;;;;18.33;16.83;;;10.60;99.90;;;;;;4999041;28;20570;-58
2022/09/25 01:30:48;;;;;;;17.20;15.80;;;10.60;99.90;;;;;;4996461;28;20571;-59
2022/09/25 01:33:28;;;;;;;16.63;15.13;;;10.60;99.90;;;;;;4998609;28;20048;-60
2022/09/25 01:36:13;;;;;;;16.33;14.77;;;10.60;99.90;;;;;;4995316;28;20034;-60
2022/09/25 01:38:45;;;;;;;17.45;15.70;;;10.70;99.90;;;;;;4995993;28;20104;-60
2022/09/25 01:41:24;;;;;;;17.02;15.05;;;10.70;99.90;;;;;;4997014;28;20167;-60
2022/09/25 01:43:58;;;;;;;16.45;14.68;;;10.80;99.90;;;;;;4997210;28;20443;-62
2022/09/25 01:46:29;;;;;;;15.27;13.82;;;10.80;99.90;;;;;;5012799;28;20529;-61
2022/09/25 01:49:04;;;;;;;15.15;13.82;;;10.90;99.90;;;;;;4997907;28;20037;-61
2022/09/25 01:51:37;;;;;;;14.77;13.57;;;10.90;99.90;;;;;;4994657;28;20026;-61
2022/09/25 01:54:10;;;;;;;13.45;12.45;;;10.90;99.90;;;;;;4994696;28;20034;-61
2022/09/25 01:57:03;;;;;;;13.95;12.75;;;10.90;99.90;;;;;;4999020;28;20047;-60
2022/09/25 01:59:38;;;;;;;15.48;12.88;;;10.90;99.90;;;;;;4993904;28;20049;-60
2022/09/25 02:02:07;;;;;;;12.88;11.75;;;10.90;99.90;;;;;;4996428;28;20034;-61
2022/09/25 02:05:11;;;;;;;13.65;11.93;;;10.90;99.90;;;;;;5000541;28;20108;-61
2022/09/25 02:07:42;;;;;;;18.00;12.43;;;11.00;99.90;;;;;;4991956;28;20035;-61
2022/09/25 02:10:15;;;;;;;12.55;11.45;;;11.00;99.90;;;;;;4996999;28;20085;-61
2022/09/25 02:12:48;;;;;;;13.15;12.05;;;11.00;99.90;;;;;;4997223;28;20517;-62
2022/09/25 02:15:34;;;;;;;14.18;13.02;;;11.00;99.90;;;;;;4997254;28;20069;-60
2022/09/25 02:21:16;;;;;;;17.60;15.48;;;11.10;99.90;;;;;;4997460;28;20088;-61
2022/09/25 02:24:03;;;;;;;18.25;16.48;;;11.10;99.90;;;;;;4997837;28;20488;-61
2022/09/25 02:26:31;;;;;;;25.77;17.55;;;11.10;99.90;;;;;;4994520;28;20452;-61
2022/09/25 02:28:58;;;;;;;20.55;18.50;;;11.10;99.90;;;;;;5004457;28;20487;-61
2022/09/25 02:31:58;;;;;;;24.75;19.40;;;11.20;99.90;;;;;;4998001;28;20046;-62
2022/09/25 02:34:24;;;;;;;26.13;20.55;;;11.20;99.90;;;;;;5002661;28;20044;-61
2022/09/25 02:36:50;;;;;;;23.65;19.15;;;11.20;99.90;;;;;;4997525;28;20425;-61
2022/09/25 02:39:20;;;;;;;25.58;19.88;;;11.30;99.90;;;;;;5003805;28;20148;-61
2022/09/25 02:41:48;;;;;;;23.08;18.00;;;11.30;99.90;;;;;;4999918;28;20034;-61
2022/09/25 02:44:23;;;;;;;27.05;19.88;;;11.30;99.90;;;;;;4996955;28;20026;-61
2022/09/25 02:47:26;;;;;;;34.75;20.10;;;11.30;99.90;;;;;;4999507;28;20061;-61
2022/09/25 02:50:01;;;;;;;22.30;19.73;;;11.30;99.90;;;;;;4999783;28;20405;-61
2022/09/25 02:52:36;;;;;;;25.90;20.98;;;11.40;99.90;;;;;;4998615;28;20088;-61
2022/09/25 02:55:14;;;;;;;36.97;23.35;;;11.40;99.90;;;;;;4999520;28;20037;-61
2022/09/25 02:57:43;;;;;;;57.80;25.38;;;11.40;99.90;;;;;;4997536;28;20065;-61
2022/09/25 03:00:12;;;;;;;47.35;25.40;;;11.40;99.90;;;;;;5004004;28;20073;-61
2022/09/25 03:02:39;;;;;;;46.90;26.08;;;11.50;99.90;;;;;;4997758;28;20069;-61
2022/09/25 03:05:06;;;;;;;82.10;29.23;;;11.50;99.90;;;;;;4999047;28;20034;-62
2022/09/25 03:08:36;;;;;;;56.53;28.27;;;11.50;99.90;;;;;;4997811;28;20030;-61
2022/09/25 03:10:19;;;;;;;95.18;31.65;;;11.50;99.90;;;;;;4998288;28;20034;-60
2022/09/25 03:12:45;;;;;;;72.95;33.60;;;11.50;99.90;;;;;;5000683;28;20021;-61
2022/09/25 03:15:11;;;;;;;76.32;31.95;;;11.50;99.90;;;;;;4999010;28;20022;-60
2022/09/25 03:17:40;;;;;;;62.10;32.42;;;11.60;99.90;;;;;;4996558;28;20030;-61
2022/09/25 03:20:08;;;;;;;72.13;33.30;;;11.60;99.90;;;;;;4995463;28;20022;-60
2022/09/25 03:22:34;;;;;;;80.25;34.42;;;11.60;99.90;;;;;;5000527;28;20134;-61
2022/09/25 03:24:59;;;;;;;65.05;32.50;;;11.60;99.90;;;;;;4999963;28;20109;-60
2022/09/25 03:27:27;;;;;;;75.18;32.85;;;11.70;99.90;;;;;;4997403;28;20034;-61
2022/09/25 03:29:54;;;;;;;77.90;32.47;;;11.70;99.90;;;;;;4996749;28;20038;-60
2022/09/25 03:32:20;;;;;;;70.45;32.55;;;11.70;99.90;;;;;;4993844;28;20054;-61
2022/09/25 03:34:45;;;;;;;75.05;32.60;;;11.60;99.90;;;;;;4997674;28;20100;-60
2022/09/25 03:37:11;;;;;;;70.85;31.02;;;11.60;99.90;;;;;;5004400;28;20195;-61
2022/09/25 03:39:36;;;;;;;61.80;31.05;;;11.60;99.90;;;;;;4998527;28;20024;-62
2022/09/25 03:42:03;;;;;;;75.43;32.13;;;11.60;99.90;;;;;;4998640;28;20029;-61
2022/09/25 03:44:29;;;;;;;73.10;32.60;;;11.60;99.90;;;;;;4997460;28;20034;-61
2022/09/25 03:46:54;;;;;;;52.75;31.67;;;11.60;99.90;;;;;;4996513;28;20030;-61
2022/09/25 03:49:21;;;;;;;59.50;31.77;;;11.60;99.90;;;;;;5004680;28;20034;-61
2022/09/25 03:51:47;;;;;;;59.92;30.30;;;11.60;99.90;;;;;;4997620;28;20034;-60
2022/09/25 03:54:12;;;;;;;55.03;31.45;;;11.60;99.90;;;;;;4998136;28;20070;-61
2022/09/25 03:56:38;;;;;;;60.03;32.83;;;11.60;99.90;;;;;;4998749;28;20038;-61
2022/09/25 03:59:04;;;;;;;60.38;33.20;;;11.60;99.90;;;;;;4998450;28;20038;-61
2022/09/25 04:01:30;;;;;;;59.20;32.28;;;11.60;99.90;;;;;;4994565;28;20030;-61
2022/09/25 04:03:56;;;;;;;62.40;32.95;;;11.60;99.90;;;;;;4997670;28;20734;-61
2022/09/25 04:06:25;;;;;;;60.28;30.90;;;11.70;99.90;;;;;;5002531;28;20451;-61
2022/09/25 04:08:52;;;;;;;62.20;33.47;;;11.70;99.90;;;;;;4999064;28;20385;-61
2022/09/25 04:11:19;;;;;;;57.92;33.03;;;11.70;99.90;;;;;;4999535;28;20044;-61
2022/09/25 04:13:45;;;;;;;62.63;34.20;;;11.70;99.90;;;;;;4982156;28;20026;-59
2022/09/25 04:16:13;;;;;;;62.03;33.00;;;11.70;99.90;;;;;;5004385;28;20026;-61
2022/09/25 04:18:41;;;;;;;66.25;32.58;;;11.70;99.90;;;;;;5001555;28;20064;-61
2022/09/25 04:21:09;;;;;;;58.78;34.17;;;11.70;99.90;;;;;;4995820;28;20076;-61
2022/09/25 04:23:35;;;;;;;76.72;34.40;;;11.70;99.90;;;;;;5004503;28;20030;-61
2022/09/25 04:26:01;;;;;;;76.38;34.42;;;11.80;99.90;;;;;;5000546;28;20494;-61
2022/09/25 04:28:30;;;;;;;71.03;34.40;;;11.80;99.90;;;;;;4997409;28;20041;-61
2022/09/25 04:30:55;;;;;;;74.57;36.17;;;11.80;99.90;;;;;;4997962;28;20410;-61
2022/09/25 04:36:05;;;;;;;73.95;37.15;;;11.80;99.90;;;;;;4996110;28;20072;-61
2022/09/25 04:38:31;;;;;;;67.00;36.55;;;11.80;99.90;;;;;;4998538;28;20069;-60
2022/09/25 04:40:58;;;;;;;63.58;35.60;;;11.80;99.90;;;;;;4995228;28;20045;-61
2022/09/25 04:43:26;;;;;;;68.60;34.30;;;11.90;99.90;;;;;;4998528;28;20121;-62
2022/09/25 04:45:52;;;;;;;71.88;35.28;;;11.90;99.90;;;;;;4997769;28;20035;-61
2022/09/25 04:48:17;;;;;;;71.63;35.28;;;11.90;99.90;;;;;;5001726;28;20368;-61
2022/09/25 04:50:48;;;;;;;58.95;30.30;;;11.90;99.90;;;;;;4999480;28;20831;-60
2022/09/25 04:53:15;;;;;;;30.67;21.40;;;11.90;99.90;;;;;;4998384;28;20108;-61
2022/09/25 04:55:40;;;;;;;33.53;22.10;;;11.90;99.90;;;;;;4997463;28;20030;-61
2022/09/25 04:58:06;;;;;;;34.20;23.23;;;11.90;99.90;;;;;;4993973;28;20037;-61
2022/09/25 05:00:32;;;;;;;37.85;23.63;;;11.90;99.90;;;;;;4998112;28;20034;-61
2022/09/25 05:02:57;;;;;;;47.47;25.10;;;11.90;99.90;;;;;;4995900;28;20030;-60
2022/09/25 05:05:27;;;;;;;39.63;24.27;;;11.90;99.90;;;;;;4998995;28;20038;-61
2022/09/25 05:07:57;;;;;;;39.08;24.13;;;11.90;99.90;;;;;;4992111;28;20034;-61
2022/09/25 05:10:26;;;;;;;38.20;22.45;;;11.90;99.90;;;;;;4993945;28;20039;-60
2022/09/25 05:12:57;;;;;;;36.35;23.55;;;11.90;99.90;;;;;;4997844;28;20092;-60
2022/09/25 05:15:23;;;;;;;30.52;23.13;;;11.90;99.90;;;;;;5001244;28;20030;-60
2022/09/25 05:17:49;;;;;;;32.40;22.80;;;11.90;99.90;;;;;;4994523;28;20081;-61
2022/09/25 05:20:15;;;;;;;34.17;22.52;;;11.90;99.90;;;;;;4996090;28;20037;-61
2022/09/25 05:22:41;;;;;;;27.95;21.10;;;11.90;99.90;;;;;;4997876;28;20038;-60
2022/09/25 05:25:08;;;;;;;31.55;21.60;;;11.90;99.90;;;;;;4993886;28;20453;-62
2022/09/25 05:27:34;;;;;;;34.53;21.38;;;12.00;99.90;;;;;;4997943;28;20040;-62
2022/09/25 05:30:00;;;;;;;30.50;21.38;;;12.00;99.90;;;;;;4997397;28;20473;-60
2022/09/25 05:32:26;;;;;;;34.33;21.98;;;12.00;99.90;;;;;;4995072;28;20038;-61
2022/09/25 05:34:51;;;;;;;30.90;21.20;;;12.00;99.90;;;;;;4997354;28;20046;-62
2022/09/25 05:37:17;;;;;;;36.28;24.08;;;12.00;99.90;;;;;;4997421;28;20406;-61
2022/09/25 05:39:43;;;;;;;33.17;22.48;;;12.00;99.90;;;;;;5000889;28;20479;-62
2022/09/25 05:42:09;;;;;;;41.03;26.70;;;12.00;99.90;;;;;;4995254;28;20033;-62
2022/09/25 05:44:35;;;;;;;42.13;25.25;;;12.00;99.90;;;;;;4993039;28;20072;-60
2022/09/25 05:47:02;;;;;;;40.65;26.25;;;12.00;99.90;;;;;;4997029;28;20025;-61
2022/09/25 05:49:30;;;;;;;40.95;25.60;;;12.00;99.90;;;;;;4996415;28;20034;-59
2022/09/25 05:51:56;;;;;;;44.72;27.05;;;12.00;99.90;;;;;;4997574;28;20536;-58
2022/09/25 05:54:22;;;;;;;49.63;28.05;;;12.00;99.90;;;;;;5000134;28;20050;-58
2022/09/25 05:56:47;;;;;;;60.20;29.83;;;11.90;99.90;;;;;;4995405;28;20031;-59
2022/09/25 05:59:13;;;;;;;60.10;32.50;;;11.90;99.90;;;;;;4995600;28;20420;-59
2022/09/25 06:01:40;;;;;;;63.85;32.88;;;11.90;99.90;;;;;;4996359;28;20037;-60
2022/09/25 06:04:05;;;;;;;70.88;33.92;;;11.90;99.90;;;;;;4993155;28;20026;-62
2022/09/25 06:06:31;;;;;;;71.03;34.80;;;11.90;99.90;;;;;;4995614;28;20080;-62
2022/09/25 06:08:56;;;;;;;84.90;35.58;;;11.90;99.90;;;;;;4997830;28;20031;-62
2022/09/25 06:11:22;;;;;;;80.80;36.38;;;11.90;99.90;;;;;;4996199;28;20062;-62
2022/09/25 06:13:49;;;;;;;103.72;39.72;;;11.90;99.90;;;;;;4993055;28;20062;-61
2022/09/25 06:16:18;;;;;;;103.65;40.30;;;11.90;99.90;;;;;;4998955;28;20063;-62
2022/09/25 06:18:46;;;;;;;89.78;39.38;;;11.90;99.90;;;;;;4999530;28;20447;-60
2022/09/25 06:21:12;;;;;;;91.05;40.25;;;12.00;99.90;;;;;;4994204;28;20034;-62
2022/09/25 06:23:37;;;;;;;86.60;37.38;;;12.00;99.90;;;;;;4998565;28;20437;-62
2022/09/25 06:26:08;;;;;;;102.07;40.83;;;12.00;99.90;;;;;;4998882;28;20019;-61
2022/09/25 06:28:34;;;;;;;98.33;39.73;;;12.00;99.90;;;;;;4998474;28;20144;-62
2022/09/25 06:31:03;;;;;;;100.57;41.03;;;12.10;99.90;;;;;;4997224;28;20265;-62
2022/09/25 06:33:29;;;;;;;108.22;44.63;;;12.20;99.90;;;;;;5000491;28;20030;-61
2022/09/25 06:35:55;;;;;;;94.35;41.72;;;12.20;99.90;;;;;;4995576;28;20037;-62
2022/09/25 06:38:20;;;;;;;82.68;39.60;;;12.30;99.90;;;;;;4997976;28;20026;-62
2022/09/25 06:40:46;;;;;;;99.57;42.10;;;12.30;99.90;;;;;;4992638;28;20566;-63
2022/09/25 06:43:14;;;;;;;94.22;41.13;;;12.30;99.90;;;;;;4998086;28;20105;-62
2022/09/25 06:45:41;;;;;;;90.03;40.33;;;12.40;99.90;;;;;;4993784;28;20053;-62
2022/09/25 06:48:09;;;;;;;82.35;39.78;;;12.40;99.90;;;;;;5001580;28;20061;-63
2022/09/25 06:50:44;;;;;;;81.32;39.53;;;12.40;99.90;;;;;;4994850;28;20068;-61
2022/09/25 06:53:11;;;;;;;86.78;40.17;;;12.40;99.90;;;;;;4996441;28;20042;-61
2022/09/25 06:55:37;;;;;;;86.75;39.38;;;12.50;99.90;;;;;;4995686;28;20062;-62
2022/09/25 06:58:04;;;;;;;87.15;38.92;;;12.50;99.90;;;;;;4997484;28;20105;-62
2022/09/25 07:00:31;;;;;;;78.28;38.80;;;12.50;99.90;;;;;;4997744;28;20033;-62
2022/09/25 07:05:43;;;;;;;84.40;39.25;;;12.60;99.90;;;;;;4998420;28;20465;-62
2022/09/25 07:08:14;;;;;;;74.38;38.08;;;12.60;99.90;;;;;;4996342;28;20045;-62
2022/09/25 07:10:49;;;;;;;80.50;39.88;;;12.70;99.90;;;;;;4995388;28;20036;-62
2022/09/25 07:13:16;;;;;;;74.65;39.38;;;12.70;99.90;;;;;;4998609;28;20042;-62
2022/09/25 07:15:42;;;;;;;92.03;40.58;;;12.70;99.90;;;;;;5000351;28;20029;-62
2022/09/25 07:18:07;;;;;;;77.20;39.90;;;12.80;99.90;;;;;;4997803;28;20029;-62
2022/09/25 07:20:33;;;;;;;68.90;36.72;;;12.80;99.90;;;;;;4999197;28;20037;-61
2022/09/25 07:23:02;;;;;;;71.13;37.22;;;12.90;99.90;;;;;;4997209;28;20026;-62
2022/09/25 07:25:30;;;;;;;72.32;37.67;;;12.90;99.90;;;;;;4995319;28;20030;-62
2022/09/25 07:27:57;;;;;;;74.97;36.85;;;13.00;99.90;;;;;;4998279;28;20255;-62
2022/09/25 07:30:25;;;;;;;78.10;35.42;;;13.00;99.90;;;;;;4997493;28;20038;-61
2022/09/25 07:32:51;;;;;;;63.65;34.75;;;13.10;99.90;;;;;;4995458;28;20061;-61
2022/09/25 07:35:17;;;;;;;84.05;37.92;;;13.20;99.90;;;;;;4997116;28;20077;-62
2022/09/25 07:37:43;;;;;;;60.70;36.85;;;13.20;99.90;;;;;;4998313;28;20026;-61
2022/09/25 07:40:12;;;;;;;68.15;35.33;;;13.20;99.90;;;;;;5002409;28;20072;-59
2022/09/25 07:42:38;;;;;;;67.03;34.28;;;13.20;99.90;;;;;;4996421;28;20022;-59
2022/09/25 07:45:03;;;;;;;63.78;36.00;;;13.20;99.90;;;;;;4998361;28;20033;-59
2022/09/25 07:47:29;;;;;;;73.82;35.90;;;13.20;99.90;;;;;;4995763;28;20402;-59
2022/09/25 07:49:55;;;;;;;73.43;35.97;;;13.30;99.90;;;;;;5001577;28;20506;-61
2022/09/25 07:52:20;;;;;;;68.40;36.38;;;13.20;99.90;;;;;;4998172;28;20034;-61
2022/09/25 07:54:46;;;;;;;57.25;34.58;;;13.30;99.90;;;;;;4998776;28;20590;-62
2022/09/25 07:57:12;;;;;;;63.20;35.30;;;13.30;99.90;;;;;;5000145;28;20076;-62
2022/09/25 07:59:37;;;;;;;73.88;36.35;;;13.30;99.90;;;;;;4998551;28;20046;-61
2022/09/25 08:02:04;;;;;;;62.90;35.15;;;13.30;99.90;;;;;;4995835;28;20487;-62
2022/09/25 08:04:29;;;;;;;61.10;35.15;;;13.30;99.90;;;;;;5000303;28;20026;-61
2022/09/25 08:06:59;;;;;;;63.10;36.38;;;13.30;99.90;;;;;;5001455;28;20033;-62
2022/09/25 08:09:24;;;;;;;71.07;36.72;;;13.30;99.90;;;;;;4997923;28;20036;-59
2022/09/25 08:11:50;;;;;;;62.38;35.60;;;13.30;99.90;;;;;;4995089;28;20030;-59
2022/09/25 08:14:17;;;;;;;60.55;34.35;;;13.40;99.90;;;;;;4998875;28;20035;-59
2022/09/25 08:16:43;;;;;;;62.58;36.17;;;13.40;99.90;;;;;;4999865;28;20072;-59
2022/09/25 08:19:10;;;;;;;63.40;35.13;;;13.40;99.90;;;;;;4999571;28;20057;-59
2022/09/25 08:21:35;;;;;;;62.22;35.70;;;13.40;99.90;;;;;;5001940;28;20030;-59
2022/09/25 08:24:01;;;;;;;64.60;36.38;;;13.50;99.90;;;;;;4998308;28;20760;-59
2022/09/25 08:26:28;;;;;;;60.10;35.63;;;13.50;99.90;;;;;;4999150;28;20035;-59
2022/09/25 08:28:53;;;;;;;58.22;34.35;;;13.50;99.90;;;;;;4997898;28;20041;-57
2022/09/25 08:31:20;;;;;;;59.75;34.20;;;13.50;99.90;;;;;;4996576;28;20145;-59
2022/09/25 08:33:47;;;;;;;57.65;34.60;;;13.60;99.90;;;;;;4994720;28;20026;-59
2022/09/25 08:36:14;;;;;;;65.60;35.42;;;13.60;99.90;;;;;;4997268;28;20018;-59
2022/09/25 08:38:40;;;;;;;60.10;34.80;;;13.60;99.90;;;;;;4996396;28;20763;-59
2022/09/25 08:41:11;;;;;;;66.25;36.58;;;13.60;99.90;;;;;;4996964;28;20029;-59
2022/09/25 08:44:02;;;;;;;62.28;34.90;;;13.60;99.90;;;;;;4998705;28;20041;-59
2022/09/25 08:49:34;;;;;;;50.95;32.72;;;13.60;99.90;;;;;;4995062;28;20104;-58
2022/09/25 08:52:04;;;;;;;49.42;32.60;;;13.60;99.90;;;;;;4996293;28;20053;-58
2022/09/25 08:54:32;;;;;;;56.20;32.97;;;13.70;99.90;;;;;;4994746;28;20026;-59
2022/09/25 08:57:23;;;;;;;51.10;32.85;;;13.70;99.90;;;;;;4998780;28;20525;-59
2022/09/25 08:59:54;;;;;;;52.00;32.60;;;13.80;99.90;;;;;;4997312;28;20671;-61
2022/09/25 09:02:21;;;;;;;;;;;13.70;99.90;;;;;;4998136;28;20097;-61
2022/09/25 09:04:50;;;;;;;50.28;30.92;;;13.70;99.90;;;;;;4994799;28;19910;-62
2022/09/25 09:07:25;;;;;;;54.95;32.30;;;13.70;99.90;;;;;;4992714;28;20035;-62
2022/09/25 09:10:05;;;;;;;53.60;31.55;;;13.70;99.90;;;;;;4992232;28;20019;-61
2022/09/25 09:12:47;;;;;;;46.63;31.10;;;13.70;99.90;;;;;;4997007;28;20451;-62
2022/09/25 09:15:27;;;;;;;49.05;31.17;;;13.70;99.90;;;;;;4995524;28;20700;-61
2022/09/25 09:17:54;;;;;;;43.95;28.73;;;13.80;99.90;;;;;;5000758;28;20029;-62
2022/09/25 09:20:27;;;;;;;44.50;29.35;;;13.90;99.90;;;;;;5000023;28;20030;-62
2022/09/25 09:22:54;;;;;;;38.50;25.40;;;14.00;99.90;;;;;;4976550;28;20708;-61
2022/09/25 09:25:27;;;;;;;35.05;24.77;;;14.10;99.90;;;;;;4979222;28;20074;-62
2022/09/25 09:28:23;;;;;;;39.35;26.15;;;14.20;99.90;;;;;;4975162;28;20031;-62
2022/09/25 09:31:02;;;;;;;35.05;26.02;;;14.40;99.90;;;;;;4975558;28;20048;-62
2022/09/25 09:33:47;;;;;;;38.78;26.73;;;14.50;99.90;;;;;;4977526;28;20058;-62
2022/09/25 09:36:29;;;;;;;40.88;27.60;;;14.70;99.90;;;;;;4975971;28;20038;-59
2022/09/25 09:39:05;;;;;;;30.77;22.88;;;14.80;99.90;;;;;;4983543;28;20092;-58
2022/09/25 09:41:54;;;;;;;39.83;26.85;;;15.00;99.90;;;;;;4976395;28;20031;-61
2022/09/25 09:44:48;;;;;;;40.88;26.98;;;15.00;99.90;;;;;;4975432;28;20105;-59
2022/09/25 09:47:32;;;;;;;35.75;26.67;;;15.00;99.90;;;;;;4967186;28;20090;-58
2022/09/25 09:50:19;;;;;;;39.28;28.33;;;15.10;99.90;;;;;;4981036;28;20042;-59
2022/09/25 09:52:48;;;;;;;40.17;27.45;;;15.10;99.90;;;;;;4975261;28;20089;-58
2022/09/25 09:55:33;;;;;;;39.83;27.98;;;15.20;99.90;;;;;;4974735;28;20518;-59
2022/09/25 09:58:07;;;;;;;43.47;28.30;;;15.40;99.90;;;;;;4973724;28;20055;-59
2022/09/25 10:00:34;;;;;;;39.88;28.35;;;15.50;99.90;;;;;;4977542;28;20157;-59
2022/09/25 10:03:19;;;;;;;41.88;26.83;;;15.70;99.90;;;;;;4977414;28;20033;-60
2022/09/25 10:05:50;;;;;;;42.50;28.13;;;15.80;99.90;;;;;;4976750;28;20034;-59
2022/09/25 10:08:16;;;;;;;34.30;25.95;;;16.00;99.90;;;;;;4976202;28;20035;-60
2022/09/25 10:10:46;;;;;;;33.60;25.17;;;16.10;99.90;;;;;;4978376;28;20046;-59
2022/09/25 10:13:24;;;;;;;30.38;24.25;;;16.30;99.90;;;;;;4973742;28;20495;-60
2022/09/25 10:16:01;;;;;;;24.00;21.58;;;16.50;99.90;;;;;;4976536;28;20041;-59
2022/09/25 10:18:36;;;;;;;31.70;24.27;;;16.90;99.90;;;;;;4975860;28;20061;-59
2022/09/25 10:21:11;;;;;;;25.50;22.55;;;17.30;99.90;;;;;;4978296;28;20133;-59
2022/09/25 10:23:39;;;;;;;24.02;21.42;;;17.50;99.90;;;;;;4975719;28;20101;-58
2022/09/25 10:26:30;;;;;;;24.02;21.52;;;17.80;99.90;;;;;;4978489;28;20109;-59
2022/09/25 10:29:01;;;;;;;21.70;19.70;;;18.00;99.90;;;;;;4977925;28;20029;-59
2022/09/25 10:31:33;;;;;;;22.45;20.10;;;18.00;99.90;;;;;;4972218;28;20042;-60
2022/09/25 10:34:00;;;;;;;22.15;20.05;;;17.80;99.90;;;;;;4976201;28;20553;-59
2022/09/25 10:36:47;;;;;;;21.63;19.55;;;17.60;99.90;;;;;;4972610;28;20053;-58
2022/09/25 10:39:29;;;;;;;23.77;21.42;;;17.50;99.90;;;;;;4979449;28;20702;-59
2022/09/25 10:41:57;;;;;;;22.90;20.50;;;17.50;99.90;;;;;;4982548;28;20049;-60
2022/09/25 10:44:32;;;;;;;22.83;20.08;;;17.70;99.90;;;;;;4982519;28;20031;-60
2022/09/25 10:50:29;;;;;;;22.95;20.60;;;18.20;99.90;;;;;;4981699;28;20041;-59
2022/09/25 10:53:00;;;;;;;22.75;20.60;;;18.30;99.90;;;;;;4979528;28;20034;-59
2022/09/25 10:55:33;;;;;;;23.55;19.90;;;18.20;99.90;;;;;;4976515;28;20027;-59
2022/09/25 10:58:24;;;;;;;22.65;20.27;;;18.20;99.90;;;;;;4984927;28;20030;-59
2022/09/25 11:00:50;;;;;;;23.50;19.73;;;18.00;99.90;;;;;;4976466;28;20022;-59
2022/09/25 11:03:40;;;;;;;22.40;20.08;;;18.00;99.90;;;;;;4981691;28;20274;-59
2022/09/25 11:06:08;;;;;;;23.30;20.95;;;17.90;99.90;;;;;;4979365;28;20578;-59
2022/09/25 11:08:37;;;;;;;23.10;20.80;;;17.90;99.90;;;;;;4995203;28;20045;-60
2022/09/25 11:11:04;;;;;;;22.67;20.52;;;17.90;99.90;;;;;;4997960;28;20116;-59
2022/09/25 11:13:51;;;;;;;25.23;22.45;;;17.80;99.90;;;;;;4998057;28;20035;-59
2022/09/25 11:16:18;;;;;;;24.00;21.50;;;17.70;99.90;;;;;;4999482;28;20536;-59
2022/09/25 11:19:07;;;;;;;23.70;20.75;;;17.70;99.90;;;;;;4997931;28;20054;-59
2022/09/25 11:21:42;;;;;;;24.05;20.73;;;17.60;99.90;;;;;;4997604;28;20044;-60
2022/09/25 11:24:25;;;;;;;25.98;23.30;;;17.60;99.90;;;;;;4998896;28;20034;-59
2022/09/25 11:27:32;;;;;;;22.95;20.80;;;17.70;99.90;;;;;;5000081;28;20079;-59
2022/09/25 11:30:17;;;;;;;23.08;20.63;;;17.80;99.90;;;;;;4996103;28;20569;-60
2022/09/25 11:32:43;;;;;;;23.38;20.90;;;17.90;99.90;;;;;;4998934;28;20524;-60
2022/09/25 11:35:40;;;;;;;25.35;22.67;;;18.10;99.90;;;;;;4997956;28;20022;-59
2022/09/25 11:41:10;;;;;;;20.73;18.92;;;18.10;99.90;;;;;;4996397;28;20023;-59
2022/09/25 11:41:21;;;;;;;20.98;19.13;;;18.10;99.90;;;;;;4998734;28;20038;-60
2022/09/25 11:43:50;;;;;;;22.63;20.38;;;18.00;99.90;;;;;;4999001;28;20084;-59
2022/09/25 11:46:38;;;;;;;23.48;21.00;;;17.90;99.90;;;;;;4996733;28;20810;-59
2022/09/25 11:49:23;;;;;;;22.33;20.02;;;17.70;99.90;;;;;;4996204;28;20026;-59
2022/09/25 11:52:38;;;;;;;22.15;19.70;;;17.50;99.90;;;;;;4998622;28;20038;-59
2022/09/25 11:55:29;;;;;;;21.77;19.67;;;17.10;99.90;;;;;;4994166;28;20096;-58
2022/09/25 11:58:23;;;;;;;23.00;20.38;;;16.80;99.90;;;;;;5001767;28;20022;-63
2022/09/25 12:01:18;;;;;;;25.55;20.20;;;16.50;99.90;;;;;;4999577;28;20030;-59
2022/09/25 12:03:51;;;;;;;20.45;18.55;;;16.40;99.90;;;;;;4995074;28;20023;-59
2022/09/25 12:06:47;;;;;;;24.42;20.52;;;16.30;99.90;;;;;;4999016;28;20612;-60
2022/09/25 12:09:38;;;;;;;22.38;19.98;;;16.20;99.90;;;;;;4995132;28;20092;-58
2022/09/25 12:12:44;;;;;;;20.33;18.45;;;16.10;99.90;;;;;;4997557;28;20034;-59
2022/09/25 12:15:28;;;;;;;20.55;18.75;;;15.90;99.90;;;;;;4989531;28;20503;-59
2022/09/25 12:18:10;;;;;;;19.05;17.35;;;15.60;99.90;;;;;;4994796;28;20060;-59
2022/09/25 12:20:48;;;;;;;20.60;18.73;;;15.40;99.90;;;;;;4999061;28;20018;-59
2022/09/25 12:23:21;;;;;;;20.30;18.60;;;15.20;99.90;;;;;;4995443;28;20144;-59
2022/09/25 12:26:01;;;;;;;21.35;19.27;;;15.00;99.90;;;;;;4995673;28;20037;-59
2022/09/25 12:28:27;;;;;;;21.42;19.65;;;14.80;99.90;;;;;;5000724;28;20813;-60
2022/09/25 12:31:13;;;;;;;20.60;18.88;;;14.70;99.90;;;;;;4999232;28;20042;-59
2022/09/25 12:33:57;;;;;;;19.90;18.10;;;14.50;99.90;;;;;;4999641;28;20520;-59
2022/09/25 12:36:43;;;;;;;21.60;18.13;;;14.40;99.90;;;;;;4996452;28;20018;-59
2022/09/25 12:39:08;;;;;;;19.73;14.93;;;14.30;99.90;;;;;;4999341;28;20026;-60
2022/09/25 12:41:47;;;;;;;78.70;16.63;;;14.10;99.90;;;;;;4999680;28;21103;-61
2022/09/25 12:44:31;;;;;;;15.98;12.55;;;13.90;99.90;;;;;;4996317;28;20026;-62
2022/09/25 12:47:23;;;;;;;22.80;13.60;;;13.70;99.90;;;;;;4993069;28;20077;-62
2022/09/25 12:49:59;;;;;;;21.67;16.27;;;13.50;99.90;;;;;;4970385;28;20372;-63
2022/09/25 12:52:46;;;;;;;18.52;15.98;;;13.30;99.90;;;;;;4995433;28;20493;-62
2022/09/25 12:55:34;;;;;;;20.42;17.67;;;13.20;99.90;;;;;;4994881;28;20033;-63
2022/09/25 12:58:23;;;;;;;30.73;19.50;;;13.00;99.90;;;;;;4995333;28;20686;-62
2022/09/25 13:01:04;;;;;;;41.20;20.40;;;13.00;99.90;;;;;;4999848;28;20022;-61
2022/09/25 13:04:12;;;;;;;22.58;19.52;;;12.90;99.90;;;;;;4998416;28;20018;-65
2022/09/25 13:06:42;;;;;;;33.47;20.13;;;13.00;99.90;;;;;;4975103;28;20057;-65
2022/09/25 13:09:15;;;;;;;29.92;20.08;;;13.00;99.90;;;;;;4995981;28;20032;-65
2022/09/25 13:11:46;;;;;;;21.40;17.23;;;13.00;99.90;;;;;;4997361;28;20033;-65
2022/09/25 13:14:27;;;;;;;17.35;16.00;;;13.00;99.90;;;;;;4999615;28;20147;-64